Time;durP1;ratioP1;P1;durP2;ratioP2;P2;SDS_P1;SDS_P2;PMS_P1;PMS_P2;Temp;Humidity;BMP_temperature;BMP_pressure;BME280_temperature;BME280_humidity;BME280_pressure;Samples;Min_cycle;Max_cycle;Signal;HPM_P1;HPM_P2
2021/09/09 00:00:46;;;;;;;11.50;8.35;;;;;;;11.63;100.00;92962.78;2123810;27;20015;-81
2021/09/09 00:01:48;;;;;;;10.65;8.30;;;;;;;11.60;100.00;92970.50;2132401;27;20030;-82
2021/09/09 00:02:49;;;;;;;11.23;7.93;;;;;;;11.62;100.00;92974.66;2123812;27;20104;-84
2021/09/09 00:03:50;;;;;;;10.93;7.85;;;;;;;11.65;100.00;92971.88;2115488;27;20024;-83
2021/09/09 00:04:52;;;;;;;10.45;8.05;;;;;;;11.62;100.00;92966.63;2115430;28;20373;-83
2021/09/09 00:05:54;;;;;;;8.93;7.40;;;;;;;11.55;100.00;92967.59;2115484;27;20080;-83
2021/09/09 00:06:56;;;;;;;9.48;7.30;;;;;;;11.48;100.00;92971.19;2120750;27;20089;-82
2021/09/09 00:07:57;;;;;;;9.00;7.47;;;;;;;11.49;100.00;92972.69;2127231;27;20033;-82
2021/09/09 00:08:58;;;;;;;9.27;7.95;;;;;;;11.49;100.00;92967.34;2124455;27;20468;-84
2021/09/09 00:10:00;;;;;;;11.05;7.50;;;;;;;11.44;100.00;92970.56;2115332;28;20111;-84
2021/09/09 00:11:01;;;;;;;11.50;8.27;;;;;;;11.42;100.00;92964.88;2098721;28;20035;-82
2021/09/09 00:12:03;;;;;;;10.23;8.02;;;;;;;11.49;100.00;92970.03;2098855;28;20032;-84
2021/09/09 00:13:04;;;;;;;11.98;8.00;;;;;;;11.47;100.00;92967.03;2108679;28;20035;-82
2021/09/09 00:14:05;;;;;;;10.32;8.02;;;;;;;11.52;100.00;92966.50;2110034;28;20024;-81
2021/09/09 00:15:09;;;;;;;8.88;7.88;;;;;;;11.56;100.00;92969.09;2102018;28;20029;-81
2021/09/09 00:16:10;;;;;;;9.45;7.97;;;;;;;11.62;100.00;92964.69;2104477;28;20020;-84
2021/09/09 00:17:12;;;;;;;11.95;7.88;;;;;;;11.54;100.00;92961.47;2105892;28;20026;-82
2021/09/09 00:18:14;;;;;;;14.10;7.72;;;;;;;11.58;100.00;92961.38;2105017;28;20020;-83
2021/09/09 00:19:15;;;;;;;9.85;7.60;;;;;;;11.59;100.00;92962.91;2115580;27;20027;-83
2021/09/09 00:20:16;;;;;;;9.95;8.07;;;;;;;11.62;100.00;92959.34;2123627;27;20134;-85
2021/09/09 00:21:17;;;;;;;10.98;7.70;;;;;;;11.60;100.00;92970.50;2115313;28;20051;-84
2021/09/09 00:22:19;;;;;;;12.55;7.88;;;;;;;11.57;100.00;92955.28;2115220;27;20022;-85
2021/09/09 00:23:20;;;;;;;11.65;8.10;;;;;;;11.55;100.00;92965.66;2115407;28;20023;-84
2021/09/09 00:24:22;;;;;;;9.48;7.30;;;;;;;11.62;100.00;92964.69;2115327;28;20050;-83
2021/09/09 00:25:23;;;;;;;19.33;8.27;;;;;;;11.59;100.00;92957.53;2124149;27;20023;-84
2021/09/09 00:26:24;;;;;;;9.57;7.85;;;;;;;11.66;100.00;92960.00;2123722;27;20037;-81
2021/09/09 00:27:25;;;;;;;11.60;8.07;;;;;;;11.65;100.00;92963.84;2115705;27;20028;-83
2021/09/09 00:28:28;;;;;;;10.50;8.25;;;;;;;11.67;100.00;92958.81;2115161;27;20070;-84
2021/09/09 00:29:30;;;;;;;12.82;8.50;;;;;;;11.68;100.00;92954.25;2115651;27;20038;-84
2021/09/09 00:30:32;;;;;;;10.98;7.85;;;;;;;11.68;100.00;92954.25;2123833;27;20027;-83
2021/09/09 00:31:33;;;;;;;9.45;8.40;;;;;;;11.68;100.00;92956.91;2115422;28;20177;-83
2021/09/09 00:32:34;;;;;;;10.65;8.68;;;;;;;11.67;100.00;92960.75;2114987;27;20051;-83
2021/09/09 00:33:36;;;;;;;9.88;8.40;;;;;;;11.64;100.00;92959.69;2115381;28;20026;-83
2021/09/09 00:34:37;;;;;;;9.65;8.65;;;;;;;11.70;100.00;92957.22;2115623;27;20072;-82
2021/09/09 00:35:39;;;;;;;10.80;8.57;;;;;;;11.71;100.00;92953.38;2132053;27;20492;-84
2021/09/09 00:36:40;;;;;;;9.35;8.52;;;;;;;11.71;100.00;92958.72;2123735;27;20698;-82
2021/09/09 00:37:44;;;;;;;11.38;8.90;;;;;;;11.68;100.00;92957.66;2122045;27;20542;-83
2021/09/09 00:38:46;;;;;;;9.80;8.80;;;;;;;11.73;100.00;92962.47;2106887;28;20035;-83
2021/09/09 00:39:48;;;;;;;11.23;9.02;;;;;;;11.78;100.00;92953.91;2106840;28;20437;-84
2021/09/09 00:40:49;;;;;;;13.00;8.68;;;;;;;11.81;100.00;92960.34;2115230;28;20023;-83
2021/09/09 00:41:52;;;;;;;9.65;8.10;;;;;;;11.74;100.00;92955.94;2124251;27;20019;-80
2021/09/09 00:42:53;;;;;;;9.27;8.38;;;;;;;11.77;100.00;92955.09;2130943;27;20030;-83
2021/09/09 00:43:55;;;;;;;9.95;8.70;;;;;;;11.83;100.00;92952.66;2123635;27;20553;-79
2021/09/09 00:44:56;;;;;;;9.27;8.32;;;;;;;11.93;100.00;92950.84;2107046;28;20020;-81
2021/09/09 00:45:58;;;;;;;10.32;8.52;;;;;;;11.97;100.00;92954.91;2115301;27;20032;-81
2021/09/09 00:47:10;;;;;;;8.90;8.00;;;;;;;11.95;100.00;92954.59;2115457;28;20024;-79
2021/09/09 00:48:13;;;;;;;9.80;8.70;;;;;;;11.94;100.00;92950.44;2124599;27;20119;-81
2021/09/09 00:49:14;;;;;;;9.30;8.40;;;;;;;11.94;100.00;92953.13;2123741;27;20023;-79
2021/09/09 00:50:18;;;;;;;11.93;8.73;;;;;;;11.95;100.00;92951.94;2114276;27;20020;-79
2021/09/09 00:51:20;;;;;;;9.55;8.57;;;;;;;11.91;100.00;92947.84;2114777;27;20042;-79
2021/09/09 00:52:23;;;;;;;9.63;8.30;;;;;;;11.87;100.00;92945.28;2122327;27;20027;-83
2021/09/09 00:53:26;;;;;;;11.68;8.75;;;;;;;11.94;100.00;92949.66;2124087;27;20023;-80
2021/09/09 00:54:28;;;;;;;9.63;8.20;;;;;;;11.88;100.00;92944.09;2114436;28;20043;-79
2021/09/09 00:55:29;;;;;;;15.13;8.80;;;;;;;11.94;100.00;92946.97;2107092;28;20017;-79
2021/09/09 00:56:30;;;;;;;9.95;8.95;;;;;;;12.00;100.00;92951.38;2098183;28;20044;-81
2021/09/09 00:57:34;;;;;;;9.35;8.27;;;;;;;11.97;100.00;92949.56;2098476;28;20493;-79
2021/09/09 00:58:36;;;;;;;12.52;8.63;;;;;;;11.98;100.00;92948.38;2106810;28;20588;-81
2021/09/09 00:59:38;;;;;;;9.32;8.30;;;;;;;11.96;100.00;92942.72;2106829;28;20024;-80
2021/09/09 01:00:40;;;;;;;11.57;8.60;;;;;;;11.97;100.00;92949.56;2106675;28;20119;-82
2021/09/09 01:01:42;;;;;;;9.77;8.63;;;;;;;11.98;100.00;92953.72;2106593;28;20020;-79
2021/09/09 01:02:43;;;;;;;8.98;8.10;;;;;;;11.97;100.00;92944.19;2114856;28;20023;-80
2021/09/09 01:03:44;;;;;;;10.98;8.02;;;;;;;12.10;100.00;92946.88;2115081;28;20044;-80
2021/09/09 01:04:45;;;;;;;8.90;8.00;;;;;;;12.09;100.00;92942.72;2098351;28;20024;-79
2021/09/09 01:05:47;;;;;;;9.52;8.55;;;;;;;12.04;100.00;92945.94;2106774;28;20058;-80
2021/09/09 01:06:49;;;;;;;9.57;8.00;;;;;;;12.05;100.00;92942.81;2106182;28;20397;-79
2021/09/09 01:07:50;;;;;;;11.95;8.63;;;;;;;12.05;100.00;92942.81;2100551;27;20489;-81
2021/09/09 01:08:51;;;;;;;9.07;8.07;;;;;;;12.05;100.00;92940.13;2123853;27;20015;-82
2021/09/09 01:09:53;;;;;;;8.85;7.95;;;;;;;12.04;100.00;92949.34;2114914;28;20376;-78
2021/09/09 01:10:54;;;;;;;11.15;8.48;;;;;;;12.02;100.00;92942.91;2106935;27;20107;-79
2021/09/09 01:11:56;;;;;;;8.80;7.82;;;;;;;11.98;100.00;92937.66;2115036;27;20085;-79
2021/09/09 01:12:57;;;;;;;9.10;8.23;;;;;;;12.05;100.00;92940.13;2114688;28;20020;-79
2021/09/09 01:14:11;;;;;;;11.50;8.45;;;;;;;12.01;100.00;92934.13;2098320;28;20059;-79
2021/09/09 01:15:13;;;;;;;9.23;8.32;;;;;;;12.01;100.00;92949.47;2105410;27;20527;-83
2021/09/09 01:16:14;;;;;;;10.05;8.88;;;;;;;11.83;100.00;92939.28;2114842;28;20433;-81
2021/09/09 01:17:15;;;;;;;9.55;8.20;;;;;;;11.84;100.00;92940.75;2106356;28;20028;-82
2021/09/09 01:18:16;;;;;;;8.73;7.75;;;;;;;11.83;100.00;92939.28;2114997;27;20117;-81
2021/09/09 01:19:18;;;;;;;9.82;8.82;;;;;;;11.82;100.00;92943.09;2127441;27;20030;-80
2021/09/09 01:20:19;;;;;;;11.30;9.13;;;;;;;11.83;100.00;92931.97;2101073;28;20040;-81
2021/09/09 01:21:22;;;;;;;9.77;8.52;;;;;;;11.96;100.00;92936.59;2092657;28;20456;-80
2021/09/09 01:22:23;;;;;;;9.10;8.20;;;;;;;11.90;100.00;92941.00;2107018;27;20102;-80
2021/09/09 01:23:25;;;;;;;9.10;7.95;;;;;;;11.79;100.00;92936.66;2114838;28;20024;-81
2021/09/09 01:24:27;;;;;;;10.15;8.23;;;;;;;11.83;100.00;92933.91;2123473;27;20085;-81
2021/09/09 01:25:28;;;;;;;10.27;9.27;;;;;;;11.84;100.00;92935.41;2114799;28;20016;-80
2021/09/09 01:26:30;;;;;;;9.48;8.45;;;;;;;11.77;100.00;92946.31;2114814;27;20016;-82
2021/09/09 01:27:33;;;;;;;9.45;8.50;;;;;;;11.75;100.00;92932.59;2115776;27;20023;-80
2021/09/09 01:28:34;;;;;;;12.63;8.55;;;;;;;11.68;100.00;92940.84;2115234;27;20459;-80
2021/09/09 01:29:38;;;;;;;9.13;8.13;;;;;;;11.67;100.00;92937.41;2131785;27;20102;-79
2021/09/09 01:30:38;;;;;;;10.57;8.43;;;;;;;11.66;100.00;92935.91;2131838;27;20485;-81
2021/09/09 01:31:39;;;;;;;11.18;8.35;;;;;;;11.67;100.00;92936.66;2123218;27;20022;-80
2021/09/09 01:32:40;;;;;;;10.88;8.70;;;;;;;11.70;100.00;92936.56;2131824;27;20099;-82
2021/09/09 01:33:42;;;;;;;13.68;8.88;;;;;;;11.68;100.00;92938.91;2132421;27;20105;-78
2021/09/09 01:34:43;;;;;;;9.65;8.50;;;;;;;11.73;100.00;92934.97;2123288;27;20026;-82
2021/09/09 01:35:44;;;;;;;9.57;8.57;;;;;;;11.60;100.00;92935.69;2114778;28;20020;-81
2021/09/09 01:36:46;;;;;;;10.93;8.48;;;;;;;11.60;100.00;92938.38;2127889;27;20019;-78
2021/09/09 01:37:46;;;;;;;9.13;8.20;;;;;;;11.51;100.00;92938.25;2123628;27;20019;-81
2021/09/09 01:38:47;;;;;;;10.25;8.60;;;;;;;11.56;100.00;92932.34;2106260;28;20028;-81
2021/09/09 01:39:49;;;;;;;9.57;8.68;;;;;;;11.63;100.00;92936.00;2089609;28;20091;-79
2021/09/09 01:40:50;;;;;;;9.80;8.80;;;;;;;11.67;100.00;92926.69;2106362;28;20071;-81
2021/09/09 01:41:53;;;;;;;9.50;8.45;;;;;;;11.63;100.00;92933.31;2123639;27;20023;-78
2021/09/09 01:42:56;;;;;;;11.88;9.45;;;;;;;11.58;100.00;92924.63;2106730;28;20733;-80
2021/09/09 01:43:57;;;;;;;9.57;8.57;;;;;;;11.53;100.00;92919.81;2098196;28;20025;-80
2021/09/09 01:44:58;;;;;;;9.65;8.75;;;;;;;11.49;100.00;92924.53;2103319;28;20116;-80
2021/09/09 01:45:59;;;;;;;9.98;8.75;;;;;;;11.44;100.00;92925.06;2117479;27;20028;-80
2021/09/09 01:47:00;;;;;;;10.95;9.02;;;;;;;11.45;100.00;92923.88;2126188;27;20027;-81
2021/09/09 01:48:01;;;;;;;10.82;8.18;;;;;;;11.43;100.00;92922.81;2121419;27;20031;-81
2021/09/09 01:49:03;;;;;;;9.45;8.55;;;;;;;11.37;100.00;92930.63;2114586;28;20460;-82
2021/09/09 01:50:05;;;;;;;10.85;8.35;;;;;;;11.36;100.00;92923.75;2112077;28;20471;-82
2021/09/09 01:51:07;;;;;;;12.10;9.10;;;;;;;11.33;100.00;92916.59;2106208;28;20016;-82
2021/09/09 01:52:09;;;;;;;9.38;8.57;;;;;;;11.33;100.00;92924.63;2091645;28;20032;-78
2021/09/09 01:53:10;;;;;;;10.13;8.45;;;;;;;11.33;100.00;92921.94;2109110;27;20479;-80
2021/09/09 01:54:11;;;;;;;10.98;9.27;;;;;;;11.34;100.00;92924.19;2132309;27;20018;-78
2021/09/09 01:55:14;;;;;;;12.95;8.60;;;;;;;11.41;100.00;92927.81;2132265;27;20030;-82
2021/09/09 01:56:15;;;;;;;11.02;8.82;;;;;;;11.31;100.00;92921.59;2124337;27;20027;-79
2021/09/09 01:57:16;;;;;;;9.77;8.77;;;;;;;11.29;100.00;92929.31;2118293;27;20051;-81
2021/09/09 01:58:18;;;;;;;8.88;7.93;;;;;;;11.30;100.00;92925.44;2114561;28;20463;-79
2021/09/09 01:59:19;;;;;;;10.95;8.57;;;;;;;11.24;100.00;92927.91;2106230;28;20051;-81
2021/09/09 02:00:20;;;;;;;9.57;8.57;;;;;;;11.30;100.00;92926.19;2114625;27;20098;-79
2021/09/09 02:01:22;;;;;;;9.80;8.90;;;;;;;11.32;100.00;92931.13;2132320;27;20026;-82
2021/09/09 02:02:24;;;;;;;10.60;8.90;;;;;;;11.29;100.00;92924.72;2114370;28;20381;-81
2021/09/09 02:03:25;;;;;;;9.60;8.65;;;;;;;11.28;100.00;92922.44;2114336;28;20028;-78
2021/09/09 02:04:29;;;;;;;9.23;8.32;;;;;;;11.38;100.00;92924.09;2114473;28;20030;-81
2021/09/09 02:05:30;;;;;;;10.57;8.48;;;;;;;11.42;100.00;92924.75;2115097;27;20070;-79
2021/09/09 02:06:33;;;;;;;10.00;8.63;;;;;;;11.29;100.00;92924.72;2122768;27;20034;-80
2021/09/09 02:07:34;;;;;;;9.93;8.70;;;;;;;11.34;100.00;92932.22;2114477;28;20050;-81
2021/09/09 02:08:35;;;;;;;10.63;8.55;;;;;;;11.28;100.00;92922.44;2114054;28;20476;-82
2021/09/09 02:09:36;;;;;;;9.88;8.73;;;;;;;11.26;100.00;92930.91;2123064;27;20516;-81
2021/09/09 02:10:40;;;;;;;9.75;8.57;;;;;;;11.36;100.00;92926.41;2122749;27;20048;-80
2021/09/09 02:11:41;;;;;;;9.82;8.27;;;;;;;11.42;100.00;92932.03;2114569;28;20031;-78
2021/09/09 02:12:42;;;;;;;9.80;8.50;;;;;;;11.37;100.00;92927.16;2095774;28;20024;-80
2021/09/09 02:13:44;;;;;;;9.90;8.80;;;;;;;11.32;100.00;92923.84;2114805;27;20024;-82
2021/09/09 02:14:47;;;;;;;9.40;8.43;;;;;;;11.34;100.00;92921.50;2127613;27;20038;-82
2021/09/09 02:15:49;;;;;;;9.75;8.77;;;;;;;11.31;100.00;92921.59;2106120;28;20028;-78
2021/09/09 02:16:52;;;;;;;9.73;8.52;;;;;;;11.31;100.00;92926.94;2097892;28;20519;-79
2021/09/09 02:17:53;;;;;;;8.77;7.65;;;;;;;11.31;100.00;92921.59;2106146;28;20042;-78
2021/09/09 02:18:57;;;;;;;10.15;9.15;;;;;;;11.26;100.00;92925.53;2097634;28;20032;-82
2021/09/09 02:19:58;;;;;;;11.27;8.80;;;;;;;11.23;100.00;92922.97;2108888;27;20028;-78
2021/09/09 02:20:59;;;;;;;9.60;8.60;;;;;;;11.24;100.00;92922.56;2132216;27;20018;-81
2021/09/09 02:22:01;;;;;;;11.35;8.15;;;;;;;11.18;100.00;92928.84;2125581;27;20054;-81
2021/09/09 02:23:02;;;;;;;9.98;8.35;;;;;;;11.17;100.00;92924.66;2114407;28;20028;-79
2021/09/09 02:24:04;;;;;;;10.00;8.25;;;;;;;11.20;100.00;92924.56;2123005;27;20019;-80
2021/09/09 02:25:06;;;;;;;9.63;8.57;;;;;;;11.22;100.00;92914.19;2122849;28;20023;-79
2021/09/09 02:26:07;;;;;;;10.27;8.73;;;;;;;11.32;100.00;92912.38;2120481;28;20026;-78
2021/09/09 02:27:08;;;;;;;9.32;7.88;;;;;;;11.18;100.00;92918.13;2119714;27;20019;-81
2021/09/09 02:28:10;;;;;;;13.13;8.63;;;;;;;11.19;100.00;92924.97;2131419;27;20023;-80
2021/09/09 02:29:11;;;;;;;8.63;7.80;;;;;;;11.15;100.00;92922.44;2118792;28;20076;-80
2021/09/09 02:30:12;;;;;;;9.10;8.15;;;;;;;11.14;100.00;92920.91;2113769;28;20052;-81
2021/09/09 02:31:14;;;;;;;9.07;8.18;;;;;;;11.14;100.00;92922.81;2123056;27;20034;-82
2021/09/09 02:32:15;;;;;;;10.40;8.32;;;;;;;11.13;100.00;92924.75;2123050;28;20019;-80
2021/09/09 02:33:16;;;;;;;9.05;8.15;;;;;;;11.16;100.00;92923.16;2122777;27;20019;-81
2021/09/09 02:34:18;;;;;;;10.05;8.40;;;;;;;11.11;100.00;92919.09;2122769;28;20808;-81
2021/09/09 02:35:19;;;;;;;9.20;8.30;;;;;;;11.08;100.00;92923.34;2106374;28;20023;-80
2021/09/09 02:36:20;;;;;;;10.73;8.43;;;;;;;11.08;100.00;92919.94;2110066;28;20025;-81
2021/09/09 02:37:21;;;;;;;9.55;8.50;;;;;;;11.03;100.00;92921.19;2105974;28;20056;-79
2021/09/09 02:38:23;;;;;;;9.50;8.48;;;;;;;11.06;100.00;92924.94;2089181;28;20381;-79
2021/09/09 02:39:24;;;;;;;9.55;8.63;;;;;;;11.00;100.00;92930.06;2097729;28;20111;-82
2021/09/09 02:40:26;;;;;;;8.95;8.05;;;;;;;10.95;100.00;92922.56;2105923;28;20028;-81
2021/09/09 02:41:27;;;;;;;10.07;8.75;;;;;;;10.98;100.00;92921.72;2111117;28;20451;-80
2021/09/09 02:42:28;;;;;;;9.60;8.38;;;;;;;10.97;100.00;92925.53;2120518;27;20050;-80
2021/09/09 02:43:31;;;;;;;11.95;8.55;;;;;;;11.06;100.00;92925.72;2123314;27;20383;-80
2021/09/09 02:44:32;;;;;;;9.10;7.55;;;;;;;11.00;100.00;92921.28;2117930;28;20077;-80
2021/09/09 02:45:33;;;;;;;10.23;8.30;;;;;;;11.07;100.00;92927.22;2123377;28;20019;-81
2021/09/09 02:46:34;;;;;;;10.23;8.20;;;;;;;11.05;100.00;92920.78;2123545;28;20027;-81
2021/09/09 02:47:36;;;;;;;9.57;7.70;;;;;;;10.96;100.00;92924.06;2123383;28;20095;-82
2021/09/09 02:48:39;;;;;;;8.63;7.63;;;;;;;11.03;100.00;92925.81;2121053;28;20037;-80
2021/09/09 02:49:40;;;;;;;10.27;7.45;;;;;;;11.00;100.00;92927.38;2106136;28;20385;-78
2021/09/09 02:50:41;;;;;;;9.13;8.15;;;;;;;11.00;100.00;92926.63;2097738;28;20154;-82
2021/09/09 02:51:44;;;;;;;8.50;6.93;;;;;;;10.93;100.00;92918.78;2110373;28;20032;-81
2021/09/09 02:52:46;;;;;;;10.50;7.70;;;;;;;10.91;100.00;92926.50;2096932;28;20082;-79
2021/09/09 02:53:48;;;;;;;8.05;7.20;;;;;;;10.85;100.00;92926.28;2098124;28;20085;-79
2021/09/09 02:54:49;;;;;;;9.50;7.15;;;;;;;10.88;100.00;92922.72;2114605;28;20016;-80
2021/09/09 02:55:50;;;;;;;8.35;7.13;;;;;;;10.89;100.00;92926.16;2105807;28;20024;-80
2021/09/09 02:56:52;;;;;;;10.60;8.32;;;;;;;10.85;100.00;92915.56;2106122;28;20020;-79
2021/09/09 02:57:53;;;;;;;9.02;7.82;;;;;;;10.82;100.00;92914.47;2123443;28;20464;-79
2021/09/09 02:58:57;;;;;;;10.00;8.07;;;;;;;10.86;100.00;92922.41;2122748;28;20023;-78
2021/09/09 03:00:00;;;;;;;8.38;7.57;;;;;;;10.84;100.00;92919.41;2105681;28;20377;-79
2021/09/09 03:01:01;;;;;;;8.63;7.82;;;;;;;10.79;100.00;92915.31;2100735;28;20025;-78
2021/09/09 03:02:03;;;;;;;10.30;7.85;;;;;;;10.92;100.00;92917.28;2107472;28;20024;-81
2021/09/09 03:03:04;;;;;;;8.63;7.70;;;;;;;10.89;100.00;92915.47;2122276;27;20023;-80
2021/09/09 03:04:06;;;;;;;8.50;7.60;;;;;;;10.88;100.00;92913.97;2124492;27;20413;-80
2021/09/09 03:05:08;;;;;;;8.45;7.60;;;;;;;11.00;100.00;92919.38;2115765;28;20111;-83
2021/09/09 03:06:10;;;;;;;9.85;7.40;;;;;;;10.93;100.00;92922.25;2116692;27;20500;-79
2021/09/09 03:07:12;;;;;;;9.10;7.70;;;;;;;10.85;100.00;92918.25;2132836;27;20054;-79
2021/09/09 03:08:13;;;;;;;8.75;7.45;;;;;;;10.88;100.00;92917.38;2110527;28;20064;-78
2021/09/09 03:09:14;;;;;;;9.55;8.00;;;;;;;10.86;100.00;92910.97;2107506;27;20070;-79
2021/09/09 03:10:17;;;;;;;10.10;7.82;;;;;;;10.87;100.00;92910.53;2115966;28;20027;-79
2021/09/09 03:11:18;;;;;;;8.57;7.75;;;;;;;10.83;100.00;92915.22;2107268;28;20031;-79
2021/09/09 03:12:19;;;;;;;10.73;8.23;;;;;;;10.75;100.00;92920.00;2106923;28;20024;-80
2021/09/09 03:13:20;;;;;;;9.57;8.43;;;;;;;10.72;100.00;92915.50;2132549;27;20023;-80
2021/09/09 03:14:22;;;;;;;8.52;7.65;;;;;;;10.85;100.00;92915.56;2115835;28;20030;-80
2021/09/09 03:15:23;;;;;;;8.38;7.55;;;;;;;10.89;100.00;92918.91;2111163;28;20110;-80
2021/09/09 03:16:24;;;;;;;8.18;7.38;;;;;;;10.79;100.00;92915.31;2090793;28;20516;-78
2021/09/09 03:17:27;;;;;;;8.57;7.78;;;;;;;10.95;100.00;92919.13;2091224;28;20048;-82
2021/09/09 03:18:28;;;;;;;9.43;8.52;;;;;;;10.93;100.00;92911.53;2099280;28;20072;-80
2021/09/09 03:19:30;;;;;;;9.90;8.60;;;;;;;10.78;100.00;92921.84;2098913;28;20020;-83
2021/09/09 03:20:31;;;;;;;9.48;8.35;;;;;;;10.77;100.00;92915.00;2105580;28;20023;-78
2021/09/09 03:21:34;;;;;;;13.57;8.73;;;;;;;10.76;100.00;92920.78;2107340;28;20492;-81
2021/09/09 03:22:36;;;;;;;10.82;9.15;;;;;;;10.88;100.00;92922.72;2099366;28;20033;-82
2021/09/09 03:23:37;;;;;;;11.02;8.10;;;;;;;10.86;100.00;92914.41;2107754;28;20480;-81
2021/09/09 03:24:39;;;;;;;10.10;8.20;;;;;;;10.90;100.00;92920.41;2099004;28;20024;-80
2021/09/09 03:25:40;;;;;;;9.23;8.00;;;;;;;10.85;100.00;92915.56;2107366;28;20032;-83
2021/09/09 03:26:42;;;;;;;9.40;8.13;;;;;;;10.96;100.00;92924.06;2090666;28;20037;-80
2021/09/09 03:27:43;;;;;;;10.13;9.13;;;;;;;10.84;100.00;92914.06;2102568;27;20024;-79
2021/09/09 03:28:45;;;;;;;8.73;7.82;;;;;;;10.94;100.00;92917.63;2124216;27;20027;-77
2021/09/09 03:29:47;;;;;;;9.13;8.32;;;;;;;10.98;100.00;92907.59;2116148;28;20028;-78
2021/09/09 03:30:49;;;;;;;10.70;8.65;;;;;;;10.98;100.00;92908.34;2107230;28;20040;-78
2021/09/09 03:31:50;;;;;;;10.90;8.70;;;;;;;11.00;100.00;92918.63;2107525;28;20837;-79
2021/09/09 03:32:51;;;;;;;9.45;8.52;;;;;;;11.07;100.00;92913.09;2124159;27;20499;-80
2021/09/09 03:33:52;;;;;;;10.02;9.02;;;;;;;11.05;100.00;92905.47;2115654;28;20020;-80
2021/09/09 03:34:54;;;;;;;16.08;9.20;;;;;;;10.99;100.00;92906.41;2107326;28;20480;-79
2021/09/09 03:35:56;;;;;;;10.35;9.00;;;;;;;10.93;100.00;92906.19;2107263;28;20055;-78
2021/09/09 03:36:57;;;;;;;10.45;9.23;;;;;;;10.92;100.00;92911.94;2115744;28;20039;-79
2021/09/09 03:38:00;;;;;;;10.82;8.85;;;;;;;10.90;100.00;92906.28;2116428;27;20031;-80
2021/09/09 03:39:01;;;;;;;10.38;9.45;;;;;;;11.05;100.00;92905.47;2098462;28;20626;-81
2021/09/09 03:40:03;;;;;;;10.35;8.65;;;;;;;11.06;100.00;92912.34;2098970;28;20031;-81
2021/09/09 03:41:05;;;;;;;9.35;8.35;;;;;;;11.04;100.00;92903.22;2116132;28;20020;-80
2021/09/09 03:42:07;;;;;;;9.85;8.85;;;;;;;11.00;100.00;92907.91;2115968;27;20457;-81
2021/09/09 03:43:09;;;;;;;9.57;8.68;;;;;;;10.99;100.00;92901.06;2124135;27;20384;-79
2021/09/09 03:44:10;;;;;;;12.32;9.02;;;;;;;10.98;100.00;92904.94;2115641;28;20081;-82
2021/09/09 03:45:11;;;;;;;9.95;8.95;;;;;;;11.04;100.00;92903.97;2098798;28;20078;-80
2021/09/09 03:46:14;;;;;;;9.90;8.75;;;;;;;11.01;100.00;92904.06;2107454;28;20031;-80
2021/09/09 03:47:15;;;;;;;10.23;8.85;;;;;;;10.97;100.00;92906.81;2107550;28;20062;-80
2021/09/09 03:48:17;;;;;;;11.02;9.27;;;;;;;11.01;100.00;92899.47;2107447;27;20476;-79
2021/09/09 03:49:22;;;;;;;9.45;8.52;;;;;;;11.08;100.00;92899.28;2123995;27;20403;-81
2021/09/09 03:50:23;;;;;;;9.85;8.85;;;;;;;11.07;100.00;92897.78;2124026;27;20899;-81
2021/09/09 03:51:24;;;;;;;12.52;8.50;;;;;;;11.11;100.00;92900.38;2124141;27;20101;-78
2021/09/09 03:52:26;;;;;;;10.48;9.38;;;;;;;11.13;100.00;92902.59;2124766;27;20038;-80
2021/09/09 03:53:28;;;;;;;12.75;8.85;;;;;;;11.07;100.00;92897.78;2122926;27;20089;-78
2021/09/09 03:54:29;;;;;;;10.15;8.52;;;;;;;11.17;100.00;92892.56;2115923;27;20117;-81
2021/09/09 03:55:31;;;;;;;9.43;8.45;;;;;;;11.27;100.00;92894.19;2123900;27;20019;-80
2021/09/09 03:56:32;;;;;;;12.55;8.75;;;;;;;11.27;100.00;92899.53;2107062;28;20020;-79
2021/09/09 03:57:33;;;;;;;10.05;8.95;;;;;;;11.27;100.00;92902.22;2098933;28;20074;-79
2021/09/09 03:58:37;;;;;;;11.55;8.23;;;;;;;11.25;100.00;92893.88;2115713;28;20019;-81
2021/09/09 03:59:38;;;;;;;9.75;8.70;;;;;;;11.26;100.00;92895.38;2115626;28;20027;-80
2021/09/09 04:00:39;;;;;;;10.30;9.20;;;;;;;11.22;100.00;92892.03;2107135;28;20026;-79
2021/09/09 04:01:42;;;;;;;10.13;8.73;;;;;;;11.24;100.00;92889.69;2115641;28;20102;-81
2021/09/09 04:02:44;;;;;;;10.23;9.00;;;;;;;11.30;100.00;92896.03;2115439;28;20519;-79
2021/09/09 04:03:46;;;;;;;10.52;9.43;;;;;;;11.26;100.00;92893.44;2115584;28;20031;-79
2021/09/09 04:04:48;;;;;;;10.07;8.55;;;;;;;11.39;100.00;92895.41;2110781;28;20027;-81
2021/09/09 04:05:49;;;;;;;11.52;8.70;;;;;;;11.33;100.00;92893.25;2115818;27;20216;-82
2021/09/09 04:06:51;;;;;;;9.25;8.35;;;;;;;11.31;100.00;92892.91;2115344;28;20097;-79
2021/09/09 04:07:53;;;;;;;14.35;9.48;;;;;;;11.32;100.00;92897.06;2115437;28;20027;-82
2021/09/09 04:08:54;;;;;;;10.10;8.93;;;;;;;11.50;100.00;92896.59;2124145;27;20029;-79
2021/09/09 04:09:57;;;;;;;9.85;8.68;;;;;;;11.45;100.00;92899.03;2123556;27;20068;-79
2021/09/09 04:10:58;;;;;;;10.27;9.27;;;;;;;11.45;100.00;92889.06;2123767;27;20596;-80
2021/09/09 04:11:59;;;;;;;11.15;8.85;;;;;;;11.43;100.00;92899.47;2123742;27;20062;-79
2021/09/09 04:13:01;;;;;;;9.90;8.77;;;;;;;11.45;100.00;92899.03;2123510;27;20471;-79
2021/09/09 04:14:04;;;;;;;9.77;8.77;;;;;;;11.42;100.00;92903.31;2123597;27;20080;-80
2021/09/09 04:15:05;;;;;;;9.70;8.70;;;;;;;11.42;100.00;92897.22;2124152;27;20121;-80
2021/09/09 04:16:06;;;;;;;13.25;9.32;;;;;;;11.34;100.00;92899.34;2124024;27;20045;-80
2021/09/09 04:17:07;;;;;;;9.50;8.57;;;;;;;11.37;100.00;92900.41;2123910;27;20529;-81
2021/09/09 04:18:09;;;;;;;9.98;8.98;;;;;;;11.40;100.00;92897.63;2123900;27;20471;-81
2021/09/09 04:19:10;;;;;;;10.63;8.77;;;;;;;11.32;100.00;92905.09;2106892;28;20028;-79
2021/09/09 04:20:12;;;;;;;9.27;8.48;;;;;;;11.32;100.00;92899.75;2111559;28;20016;-79
2021/09/09 04:21:13;;;;;;;10.77;8.95;;;;;;;11.31;100.00;92895.59;2116005;28;20016;-79
2021/09/09 04:22:14;;;;;;;11.02;8.27;;;;;;;11.35;100.00;92908.88;2115288;28;20020;-82
2021/09/09 04:23:16;;;;;;;11.32;8.50;;;;;;;11.32;100.00;92904.34;2098551;28;20012;-78
2021/09/09 04:24:20;;;;;;;9.02;8.13;;;;;;;11.33;100.00;92903.94;2090227;28;20029;-79
2021/09/09 04:25:21;;;;;;;9.18;8.27;;;;;;;11.28;100.00;92903.72;2107471;28;20020;-79
2021/09/09 04:26:22;;;;;;;10.25;9.25;;;;;;;11.31;100.00;92903.63;2116028;28;20414;-83
2021/09/09 04:27:25;;;;;;;10.90;8.18;;;;;;;11.32;100.00;92901.69;2115352;28;20019;-81
2021/09/09 04:28:26;;;;;;;10.50;8.70;;;;;;;11.29;100.00;92903.31;2107092;28;20024;-78
2021/09/09 04:29:28;;;;;;;8.75;7.85;;;;;;;11.28;100.00;92898.34;2115042;28;20030;-80
2021/09/09 04:30:29;;;;;;;10.15;8.60;;;;;;;11.25;100.00;92902.66;2115264;28;20094;-79
2021/09/09 04:31:31;;;;;;;9.90;8.90;;;;;;;11.35;100.00;92898.16;2115401;28;20353;-80
2021/09/09 04:32:32;;;;;;;8.95;8.05;;;;;;;11.42;100.00;92892.63;2115991;28;20058;-81
2021/09/09 04:33:33;;;;;;;8.95;8.05;;;;;;;11.40;100.00;92900.31;2115372;28;20098;-80
2021/09/09 04:34:36;;;;;;;9.90;7.95;;;;;;;11.31;100.00;92892.91;2108086;27;20028;-81
2021/09/09 04:35:37;;;;;;;8.30;7.38;;;;;;;11.44;100.00;92900.97;2114182;28;20104;-81
2021/09/09 04:36:38;;;;;;;8.80;7.90;;;;;;;11.53;100.00;92898.41;2122000;27;20034;-82
2021/09/09 04:37:40;;;;;;;9.18;7.93;;;;;;;11.49;100.00;92897.00;2122921;27;20019;-82
2021/09/09 04:38:41;;;;;;;9.32;8.38;;;;;;;11.42;100.00;92899.91;2115155;28;20431;-80
2021/09/09 04:39:43;;;;;;;8.45;7.65;;;;;;;11.45;100.00;92899.78;2106838;28;20028;-79
2021/09/09 04:40:47;;;;;;;12.60;7.65;;;;;;;11.44;100.00;92900.97;2108716;28;20577;-79
2021/09/09 04:41:49;;;;;;;10.75;7.85;;;;;;;11.43;100.00;92902.16;2115273;28;20030;-79
2021/09/09 04:42:50;;;;;;;9.77;8.85;;;;;;;11.52;100.00;92902.25;2113393;28;20535;-79
2021/09/09 04:43:52;;;;;;;9.63;8.25;;;;;;;11.54;100.00;92901.81;2105792;28;20077;-78
2021/09/09 04:44:53;;;;;;;9.07;8.13;;;;;;;11.48;100.00;92898.94;2106154;28;20028;-78
2021/09/09 04:45:55;;;;;;;10.57;8.45;;;;;;;11.51;100.00;92902.69;2105608;28;20773;-78